METAR Data
IDs: Format: Raw Decoded Include TAF

Data at: 0841 UTC 01 Aug 2021

LHBP 010838Z 07008KT 050V110 9999 VCSH FEW043TCU SCT100 BKN180 23/20 Q1008 NOSIG